Smithville, MS

7:33 PM CDT on March 28, 2017 (GMT -0500)
Amory | | Change Station

Elev 233 ft 33.98 °N, 88.49 °W | Updated 4 seconds ago

Clear
Clear
76.2 °F
Feels Like 78 °F
N
0.0
Wind Variable Wind from NE
Gusts 0.0 mph

Today
High -- | Low -- °F
--% Chance of Precip.
Yesterday
High -- | Low -- °F
Precip. -- in
Pressure 29.93 in
Visibility 10.0 miles
Clouds Clear
Heat Index 78 °F
Dew Point 63 °F
Humidity 63%
Rainfall 0.02 in
Snow Depth Not available.
6:45 AM 7:11 PM
New Moon, 1% visible
METAR KTUP 282353Z 05006KT 10SM CLR 24/14 A2994 RMK AO2 SLP135 T02390144 10267 20239 53001 $
Pressure 29.93 in
Visibility 10.0 miles
Clouds Clear
Heat Index 78 °F
Dew Point 63 °F
Humidity 63%
Rainfall 0.02 in
Snow Depth Not available.
6:45 AM 7:11 PM
New Moon, 1% visible
METAR KTUP 282353Z 05006KT 10SM CLR 24/14 A2994 RMK AO2 SLP135 T02390144 10267 20239 53001 $

Get Severe Weather Alerts

Thanks for signing up!

Be on the lookout for a verification email in your inbox.

You'll start receiving the daily forecast at 8 AM.

×

10-Day Weather Forecast

Almanac

Astronomy

Mar. 28, 2017 Rise Set
Actual Time
Civil Twilight
Nautical Twilight
Astronomical Twilight
Moon
Length of Visible Light
Length of Day
Tomorrow will be .
, % of the Moon is Illuminated

Today's Extremes

State Highs State Lows

Community

WunderPhotos

Upload Photos

1,962,540 photos uploaded!

WunderBlog® & News

Nearby

Air Quality

  Air Quality AQ Index Pollutant
Not available.

Snow Depth

Station Depth Elevation

Earthquake Activity

City Distance Mag. Time & Date
Minimum magnitude displayed is 2.5.

Earthquake Activity

City Distance Mag. Time & Date
Minimum magnitude displayed is 2.5.

Coastal Water Temperatures

Place Temperature

Stations

Nearby Weather Stations

Station Location Temp. Windchill Dew Point Humidity Wind Precip. Elev Updated Type
                   

Watches & Warnings

There are currently no watches in effect.